sensor_id;sensor_type;location;lat;lon;timestamp;temperature;humidity
20795;DHT22;28087;-33.874;151.240;2022-09-01T00:05:19;19.10;99.90
20795;DHT22;28087;-33.874;151.240;2022-09-01T00:07:58;19.50;99.90
20795;DHT22;28087;-33.874;151.240;2022-09-01T00:10:34;19.80;99.90
20795;DHT22;28087;-33.874;151.240;2022-09-01T00:13:14;20.00;99.90
20795;DHT22;28087;-33.874;151.240;2022-09-01T00:15:49;20.20;99.90
20795;DHT22;28087;-33.874;151.240;2022-09-01T00:18:25;20.30;99.90
20795;DHT22;28087;-33.874;151.240;2022-09-01T00:21:04;20.50;99.90
20795;DHT22;28087;-33.874;151.240;2022-09-01T00:23:42;20.60;99.90
20795;DHT22;28087;-33.874;151.240;2022-09-01T00:26:18;20.80;99.90
20795;DHT22;28087;-33.874;151.240;2022-09-01T00:29:18;20.90;99.90
20795;DHT22;28087;-33.874;151.240;2022-09-01T00:31:54;20.70;99.90
20795;DHT22;28087;-33.874;151.240;2022-09-01T00:34:30;20.60;99.90
20795;DHT22;28087;-33.874;151.240;2022-09-01T00:37:06;20.30;99.90
20795;DHT22;28087;-33.874;151.240;2022-09-01T00:39:44;20.30;99.90
20795;DHT22;28087;-33.874;151.240;2022-09-01T00:42:20;20.40;99.90
20795;DHT22;28087;-33.874;151.240;2022-09-01T00:44:58;20.30;99.90
20795;DHT22;28087;-33.874;151.240;2022-09-01T00:47:33;20.20;99.90
20795;DHT22;28087;-33.874;151.240;2022-09-01T00:52:52;19.90;99.90
20795;DHT22;28087;-33.874;151.240;2022-09-01T00:55:33;19.80;99.90
20795;DHT22;28087;-33.874;151.240;2022-09-01T01:00:53;19.60;99.90
20795;DHT22;28087;-33.874;151.240;2022-09-01T01:06:07;19.40;99.90
20795;DHT22;28087;-33.874;151.240;2022-09-01T01:08:47;19.30;99.90
20795;DHT22;28087;-33.874;151.240;2022-09-01T01:14:09;19.20;99.90
20795;DHT22;28087;-33.874;151.240;2022-09-01T01:16:49;19.40;99.90
20795;DHT22;28087;-33.874;151.240;2022-09-01T01:19:34;19.30;99.90
20795;DHT22;28087;-33.874;151.240;2022-09-01T01:22:38;19.30;99.90
20795;DHT22;28087;-33.874;151.240;2022-09-01T01:25:33;19.20;99.90
20795;DHT22;28087;-33.874;151.240;2022-09-01T01:28:13;19.20;99.90
20795;DHT22;28087;-33.874;151.240;2022-09-01T01:33:35;19.20;99.90
20795;DHT22;28087;-33.874;151.240;2022-09-01T01:36:16;19.50;99.90
20795;DHT22;28087;-33.874;151.240;2022-09-01T01:38:55;19.70;99.90
20795;DHT22;28087;-33.874;151.240;2022-09-01T01:41:40;20.00;99.90
20795;DHT22;28087;-33.874;151.240;2022-09-01T01:44:19;20.30;99.90
20795;DHT22;28087;-33.874;151.240;2022-09-01T01:47:02;20.30;99.90
20795;DHT22;28087;-33.874;151.240;2022-09-01T01:49:40;20.70;99.90
20795;DHT22;28087;-33.874;151.240;2022-09-01T01:57:37;21.10;99.90
20795;DHT22;28087;-33.874;151.240;2022-09-01T04:05:28;20.20;99.90
20795;DHT22;28087;-33.874;151.240;2022-09-01T04:16:18;20.10;99.90
20795;DHT22;28087;-33.874;151.240;2022-09-01T04:35:15;20.20;99.90
20795;DHT22;28087;-33.874;151.240;2022-09-01T04:38:10;20.10;99.90
20795;DHT22;28087;-33.874;151.240;2022-09-01T04:40:49;20.00;99.90
20795;DHT22;28087;-33.874;151.240;2022-09-01T04:46:06;20.20;99.90
20795;DHT22;28087;-33.874;151.240;2022-09-01T04:48:43;20.30;99.90
20795;DHT22;28087;-33.874;151.240;2022-09-01T04:51:25;20.30;99.90
20795;DHT22;28087;-33.874;151.240;2022-09-01T04:59:27;20.20;99.90
20795;DHT22;28087;-33.874;151.240;2022-09-01T05:02:06;19.90;99.90
20795;DHT22;28087;-33.874;151.240;2022-09-01T05:04:42;19.90;99.90
20795;DHT22;28087;-33.874;151.240;2022-09-01T05:15:24;19.90;99.90
20795;DHT22;28087;-33.874;151.240;2022-09-01T05:17:59;19.80;99.90
20795;DHT22;28087;-33.874;151.240;2022-09-01T05:31:07;19.90;99.90
20795;DHT22;28087;-33.874;151.240;2022-09-01T05:39:29;19.50;99.90
20795;DHT22;28087;-33.874;151.240;2022-09-01T05:42:08;19.50;99.90
20795;DHT22;28087;-33.874;151.240;2022-09-01T05:44:45;19.40;99.90
20795;DHT22;28087;-33.874;151.240;2022-09-01T05:47:25;19.40;99.90
20795;DHT22;28087;-33.874;151.240;2022-09-01T05:50:01;19.50;99.90
20795;DHT22;28087;-33.874;151.240;2022-09-01T05:57:00;19.50;99.90
20795;DHT22;28087;-33.874;151.240;2022-09-01T06:01:21;19.40;99.90
20795;DHT22;28087;-33.874;151.240;2022-09-01T06:03:59;19.40;99.90
20795;DHT22;28087;-33.874;151.240;2022-09-01T06:06:40;19.40;99.90
20795;DHT22;28087;-33.874;151.240;2022-09-01T06:09:41;19.40;99.90
20795;DHT22;28087;-33.874;151.240;2022-09-01T06:12:20;19.40;99.90
20795;DHT22;28087;-33.874;151.240;2022-09-01T06:14:56;19.40;99.90
20795;DHT22;28087;-33.874;151.240;2022-09-01T06:17:35;19.30;99.90
20795;DHT22;28087;-33.874;151.240;2022-09-01T06:20:10;19.30;99.90
20795;DHT22;28087;-33.874;151.240;2022-09-01T06:22:49;19.30;99.90
20795;DHT22;28087;-33.874;151.240;2022-09-01T06:25:30;19.20;99.90
20795;DHT22;28087;-33.874;151.240;2022-09-01T06:28:06;19.20;99.90
20795;DHT22;28087;-33.874;151.240;2022-09-01T06:30:44;19.10;99.90
20795;DHT22;28087;-33.874;151.240;2022-09-01T06:33:23;19.20;99.90
20795;DHT22;28087;-33.874;151.240;2022-09-01T06:36:01;19.20;99.90
20795;DHT22;28087;-33.874;151.240;2022-09-01T06:38:38;19.20;99.90
20795;DHT22;28087;-33.874;151.240;2022-09-01T06:41:13;19.20;99.90
20795;DHT22;28087;-33.874;151.240;2022-09-01T06:43:51;19.10;99.90
20795;DHT22;28087;-33.874;151.240;2022-09-01T06:46:36;19.10;99.90
20795;DHT22;28087;-33.874;151.240;2022-09-01T06:57:41;19.10;99.90
20795;DHT22;28087;-33.874;151.240;2022-09-01T07:00:41;19.00;99.90
20795;DHT22;28087;-33.874;151.240;2022-09-01T07:04:12;19.40;99.90
20795;DHT22;28087;-33.874;151.240;2022-09-01T07:07:53;19.00;99.90
20795;DHT22;28087;-33.874;151.240;2022-09-01T07:48:43;19.00;99.90
20795;DHT22;28087;-33.874;151.240;2022-09-01T07:51:43;18.80;99.90
20795;DHT22;28087;-33.874;151.240;2022-09-01T07:54:23;18.80;99.90
20795;DHT22;28087;-33.874;151.240;2022-09-01T07:56:59;18.80;99.90
20795;DHT22;28087;-33.874;151.240;2022-09-01T08:04:56;18.80;99.90
20795;DHT22;28087;-33.874;151.240;2022-09-01T08:07:33;18.70;99.90
20795;DHT22;28087;-33.874;151.240;2022-09-01T08:10:25;18.70;99.90
20795;DHT22;28087;-33.874;151.240;2022-09-01T08:13:01;18.70;99.90
20795;DHT22;28087;-33.874;151.240;2022-09-01T08:15:39;18.70;99.90
20795;DHT22;28087;-33.874;151.240;2022-09-01T08:18:37;18.60;99.90
20795;DHT22;28087;-33.874;151.240;2022-09-01T08:21:31;18.60;99.90
20795;DHT22;28087;-33.874;151.240;2022-09-01T08:24:29;18.50;99.90
20795;DHT22;28087;-33.874;151.240;2022-09-01T08:27:05;18.50;99.90
20795;DHT22;28087;-33.874;151.240;2022-09-01T08:29:41;18.50;99.90
20795;DHT22;28087;-33.874;151.240;2022-09-01T08:32:16;18.40;99.90
20795;DHT22;28087;-33.874;151.240;2022-09-01T08:34:54;18.40;99.90
20795;DHT22;28087;-33.874;151.240;2022-09-01T08:37:31;18.50;99.90
20795;DHT22;28087;-33.874;151.240;2022-09-01T08:40:09;18.50;99.90
20795;DHT22;28087;-33.874;151.240;2022-09-01T08:42:56;18.50;99.90
20795;DHT22;28087;-33.874;151.240;2022-09-01T08:45:40;18.60;99.90
20795;DHT22;28087;-33.874;151.240;2022-09-01T08:48:21;18.60;99.90
20795;DHT22;28087;-33.874;151.240;2022-09-01T08:51:26;18.60;99.90
20795;DHT22;28087;-33.874;151.240;2022-09-01T08:54:12;18.50;99.90
20795;DHT22;28087;-33.874;151.240;2022-09-01T08:57:04;18.50;99.90
20795;DHT22;28087;-33.874;151.240;2022-09-01T09:00:07;18.50;99.90
20795;DHT22;28087;-33.874;151.240;2022-09-01T09:02:54;18.50;99.90
20795;DHT22;28087;-33.874;151.240;2022-09-01T09:05:39;18.50;99.90
20795;DHT22;28087;-33.874;151.240;2022-09-01T09:08:34;18.50;99.90
20795;DHT22;28087;-33.874;151.240;2022-09-01T09:11:29;18.50;99.90
20795;DHT22;28087;-33.874;151.240;2022-09-01T09:14:14;18.50;99.90
20795;DHT22;28087;-33.874;151.240;2022-09-01T09:19:34;18.50;99.90
20795;DHT22;28087;-33.874;151.240;2022-09-01T09:24:52;18.50;99.90
20795;DHT22;28087;-33.874;151.240;2022-09-01T10:11:28;18.40;99.90
20795;DHT22;28087;-33.874;151.240;2022-09-01T10:14:17;18.40;99.90
20795;DHT22;28087;-33.874;151.240;2022-09-01T10:17:14;18.40;99.90
20795;DHT22;28087;-33.874;151.240;2022-09-01T10:19:58;18.40;99.90
20795;DHT22;28087;-33.874;151.240;2022-09-01T10:22:38;18.30;99.90
20795;DHT22;28087;-33.874;151.240;2022-09-01T10:25:20;18.40;99.90
20795;DHT22;28087;-33.874;151.240;2022-09-01T10:28:05;18.30;99.90
20795;DHT22;28087;-33.874;151.240;2022-09-01T10:30:53;18.40;99.90
20795;DHT22;28087;-33.874;151.240;2022-09-01T10:33:30;18.30;99.90
20795;DHT22;28087;-33.874;151.240;2022-09-01T10:36:07;18.40;99.90
20795;DHT22;28087;-33.874;151.240;2022-09-01T10:38:44;18.30;99.90
20795;DHT22;28087;-33.874;151.240;2022-09-01T10:41:58;18.40;99.90
20795;DHT22;28087;-33.874;151.240;2022-09-01T10:44:56;18.40;99.90
20795;DHT22;28087;-33.874;151.240;2022-09-01T10:47:36;18.40;99.90
20795;DHT22;28087;-33.874;151.240;2022-09-01T10:50:29;18.40;99.90
20795;DHT22;28087;-33.874;151.240;2022-09-01T10:53:07;18.30;99.90
20795;DHT22;28087;-33.874;151.240;2022-09-01T10:55:59;18.40;99.90
20795;DHT22;28087;-33.874;151.240;2022-09-01T10:59:07;18.40;99.90
20795;DHT22;28087;-33.874;151.240;2022-09-01T11:02:16;18.40;99.90
20795;DHT22;28087;-33.874;151.240;2022-09-01T11:05:15;18.40;99.90
20795;DHT22;28087;-33.874;151.240;2022-09-01T11:07:51;18.40;99.90
20795;DHT22;28087;-33.874;151.240;2022-09-01T11:10:42;18.40;99.90
20795;DHT22;28087;-33.874;151.240;2022-09-01T11:13:35;18.30;99.90
20795;DHT22;28087;-33.874;151.240;2022-09-01T11:16:39;18.40;99.90
20795;DHT22;28087;-33.874;151.240;2022-09-01T11:19:38;18.40;99.90
20795;DHT22;28087;-33.874;151.240;2022-09-01T11:22:41;18.40;99.90
20795;DHT22;28087;-33.874;151.240;2022-09-01T11:25:39;18.30;99.90
20795;DHT22;28087;-33.874;151.240;2022-09-01T11:31:32;18.30;99.90
20795;DHT22;28087;-33.874;151.240;2022-09-01T11:34:15;18.30;99.90
20795;DHT22;28087;-33.874;151.240;2022-09-01T11:36:56;18.30;99.90
20795;DHT22;28087;-33.874;151.240;2022-09-01T11:39:45;18.30;99.90
20795;DHT22;28087;-33.874;151.240;2022-09-01T11:45:21;18.20;99.90
20795;DHT22;28087;-33.874;151.240;2022-09-01T11:48:05;18.40;99.90
20795;DHT22;28087;-33.874;151.240;2022-09-01T11:50:45;17.70;99.90
20795;DHT22;28087;-33.874;151.240;2022-09-01T11:53:30;18.30;99.90
20795;DHT22;28087;-33.874;151.240;2022-09-01T12:09:43;18.10;99.90
20795;DHT22;28087;-33.874;151.240;2022-09-01T12:12:37;18.10;99.90
20795;DHT22;28087;-33.874;151.240;2022-09-01T12:15:23;18.10;99.90
20795;DHT22;28087;-33.874;151.240;2022-09-01T12:18:15;18.20;99.90
20795;DHT22;28087;-33.874;151.240;2022-09-01T12:20:54;18.20;99.90
20795;DHT22;28087;-33.874;151.240;2022-09-01T12:23:39;18.30;99.90
20795;DHT22;28087;-33.874;151.240;2022-09-01T12:26:19;18.20;99.90
20795;DHT22;28087;-33.874;151.240;2022-09-01T12:31:46;18.20;99.90
20795;DHT22;28087;-33.874;151.240;2022-09-01T12:39:44;18.20;99.90
20795;DHT22;28087;-33.874;151.240;2022-09-01T12:42:25;18.20;99.90
20795;DHT22;28087;-33.874;151.240;2022-09-01T12:45:39;18.20;99.90
20795;DHT22;28087;-33.874;151.240;2022-09-01T12:48:26;18.20;99.90
20795;DHT22;28087;-33.874;151.240;2022-09-01T12:59:12;18.10;99.90
20795;DHT22;28087;-33.874;151.240;2022-09-01T13:07:51;18.10;99.90
20795;DHT22;28087;-33.874;151.240;2022-09-01T13:10:27;18.10;99.90
20795;DHT22;28087;-33.874;151.240;2022-09-01T13:13:06;18.10;99.90
20795;DHT22;28087;-33.874;151.240;2022-09-01T13:15:46;18.00;99.90
20795;DHT22;28087;-33.874;151.240;2022-09-01T13:18:26;18.00;99.90
20795;DHT22;28087;-33.874;151.240;2022-09-01T13:31:35;17.90;99.90
20795;DHT22;28087;-33.874;151.240;2022-09-01T13:34:31;17.90;99.90
20795;DHT22;28087;-33.874;151.240;2022-09-01T13:53:44;17.80;99.90
20795;DHT22;28087;-33.874;151.240;2022-09-01T13:56:24;17.80;99.90
20795;DHT22;28087;-33.874;151.240;2022-09-01T13:59:00;17.70;99.90
20795;DHT22;28087;-33.874;151.240;2022-09-01T14:01:35;17.60;99.90
20795;DHT22;28087;-33.874;151.240;2022-09-01T14:04:12;17.60;99.90
20795;DHT22;28087;-33.874;151.240;2022-09-01T14:06:47;17.60;99.90
20795;DHT22;28087;-33.874;151.240;2022-09-01T14:09:23;17.50;99.90
20795;DHT22;28087;-33.874;151.240;2022-09-01T14:12:01;17.50;99.90
20795;DHT22;28087;-33.874;151.240;2022-09-01T14:14:37;17.40;99.90
20795;DHT22;28087;-33.874;151.240;2022-09-01T14:17:33;17.40;99.90
20795;DHT22;28087;-33.874;151.240;2022-09-01T14:20:13;17.40;99.90
20795;DHT22;28087;-33.874;151.240;2022-09-01T14:22:50;17.40;99.90
20795;DHT22;28087;-33.874;151.240;2022-09-01T14:25:27;17.40;99.90
20795;DHT22;28087;-33.874;151.240;2022-09-01T14:28:04;17.30;99.90
20795;DHT22;28087;-33.874;151.240;2022-09-01T14:30:41;17.30;99.90
20795;DHT22;28087;-33.874;151.240;2022-09-01T14:33:17;17.30;99.90
20795;DHT22;28087;-33.874;151.240;2022-09-01T14:35:55;17.30;99.90
20795;DHT22;28087;-33.874;151.240;2022-09-01T14:38:31;17.30;99.90
20795;DHT22;28087;-33.874;151.240;2022-09-01T14:41:06;17.30;99.90
20795;DHT22;28087;-33.874;151.240;2022-09-01T14:43:44;17.30;99.90
20795;DHT22;28087;-33.874;151.240;2022-09-01T14:46:22;17.30;99.90
20795;DHT22;28087;-33.874;151.240;2022-09-01T14:48:59;17.20;99.90
20795;DHT22;28087;-33.874;151.240;2022-09-01T14:51:35;17.20;99.90
20795;DHT22;28087;-33.874;151.240;2022-09-01T14:54:30;17.20;99.90
20795;DHT22;28087;-33.874;151.240;2022-09-01T14:57:06;17.10;99.90
20795;DHT22;28087;-33.874;151.240;2022-09-01T15:00:05;17.10;99.90
20795;DHT22;28087;-33.874;151.240;2022-09-01T15:02:46;17.10;99.90
20795;DHT22;28087;-33.874;151.240;2022-09-01T15:05:22;17.10;99.90
20795;DHT22;28087;-33.874;151.240;2022-09-01T15:07:58;17.10;99.90
20795;DHT22;28087;-33.874;151.240;2022-09-01T15:10:34;17.10;99.90
20795;DHT22;28087;-33.874;151.240;2022-09-01T15:13:12;17.10;99.90
20795;DHT22;28087;-33.874;151.240;2022-09-01T15:15:50;17.10;99.90
20795;DHT22;28087;-33.874;151.240;2022-09-01T15:18:26;17.10;99.90
20795;DHT22;28087;-33.874;151.240;2022-09-01T15:21:02;17.10;99.90
20795;DHT22;28087;-33.874;151.240;2022-09-01T15:23:38;17.10;99.90
20795;DHT22;28087;-33.874;151.240;2022-09-01T15:26:15;17.10;99.90
20795;DHT22;28087;-33.874;151.240;2022-09-01T15:28:50;17.00;99.90
20795;DHT22;28087;-33.874;151.240;2022-09-01T15:31:29;17.10;99.90
20795;DHT22;28087;-33.874;151.240;2022-09-01T15:34:05;17.00;99.90
20795;DHT22;28087;-33.874;151.240;2022-09-01T15:36:41;17.00;99.90
20795;DHT22;28087;-33.874;151.240;2022-09-01T15:39:16;17.00;99.90
20795;DHT22;28087;-33.874;151.240;2022-09-01T15:41:52;17.00;99.90
20795;DHT22;28087;-33.874;151.240;2022-09-01T15:44:28;17.00;99.90
20795;DHT22;28087;-33.874;151.240;2022-09-01T15:47:06;17.00;99.90
20795;DHT22;28087;-33.874;151.240;2022-09-01T15:50:00;17.00;99.90
20795;DHT22;28087;-33.874;151.240;2022-09-01T15:52:47;16.90;99.90
20795;DHT22;28087;-33.874;151.240;2022-09-01T15:55:25;16.90;99.90
20795;DHT22;28087;-33.874;151.240;2022-09-01T15:58:05;16.90;99.90
20795;DHT22;28087;-33.874;151.240;2022-09-01T16:00:41;16.90;99.90
20795;DHT22;28087;-33.874;151.240;2022-09-01T16:03:19;16.90;99.90
20795;DHT22;28087;-33.874;151.240;2022-09-01T16:05:55;16.90;99.90
20795;DHT22;28087;-33.874;151.240;2022-09-01T16:08:31;16.90;99.90
20795;DHT22;28087;-33.874;151.240;2022-09-01T16:11:07;16.90;99.90
20795;DHT22;28087;-33.874;151.240;2022-09-01T16:13:44;16.90;99.90
20795;DHT22;28087;-33.874;151.240;2022-09-01T16:19:27;16.90;99.90
20795;DHT22;28087;-33.874;151.240;2022-09-01T16:22:12;16.90;99.90
20795;DHT22;28087;-33.874;151.240;2022-09-01T16:24:54;16.90;99.90
20795;DHT22;28087;-33.874;151.240;2022-09-01T16:27:36;16.90;99.90
20795;DHT22;28087;-33.874;151.240;2022-09-01T16:30:14;16.90;99.90
20795;DHT22;28087;-33.874;151.240;2022-09-01T16:32:55;16.90;99.90
20795;DHT22;28087;-33.874;151.240;2022-09-01T16:35:37;16.90;99.90
20795;DHT22;28087;-33.874;151.240;2022-09-01T16:38:28;16.90;99.90
20795;DHT22;28087;-33.874;151.240;2022-09-01T16:41:13;16.80;99.90
20795;DHT22;28087;-33.874;151.240;2022-09-01T16:43:56;16.80;99.90
20795;DHT22;28087;-33.874;151.240;2022-09-01T16:46:42;16.80;99.90
20795;DHT22;28087;-33.874;151.240;2022-09-01T16:49:27;16.80;99.90
20795;DHT22;28087;-33.874;151.240;2022-09-01T16:52:21;16.80;99.90
20795;DHT22;28087;-33.874;151.240;2022-09-01T16:55:19;16.80;99.90
20795;DHT22;28087;-33.874;151.240;2022-09-01T16:58:02;16.70;99.90
20795;DHT22;28087;-33.874;151.240;2022-09-01T17:00:44;16.80;99.90
20795;DHT22;28087;-33.874;151.240;2022-09-01T17:03:31;16.70;99.90
20795;DHT22;28087;-33.874;151.240;2022-09-01T17:06:16;16.70;99.90
20795;DHT22;28087;-33.874;151.240;2022-09-01T17:09:01;16.70;99.90
20795;DHT22;28087;-33.874;151.240;2022-09-01T17:11:44;16.70;99.90
20795;DHT22;28087;-33.874;151.240;2022-09-01T17:14:26;16.70;99.90
20795;DHT22;28087;-33.874;151.240;2022-09-01T17:17:07;16.60;99.90
20795;DHT22;28087;-33.874;151.240;2022-09-01T17:19:43;16.60;99.90
20795;DHT22;28087;-33.874;151.240;2022-09-01T17:22:24;16.60;99.90
20795;DHT22;28087;-33.874;151.240;2022-09-01T17:25:05;16.60;99.90
20795;DHT22;28087;-33.874;151.240;2022-09-01T17:27:52;16.60;99.90
20795;DHT22;28087;-33.874;151.240;2022-09-01T17:30:30;16.60;99.90
20795;DHT22;28087;-33.874;151.240;2022-09-01T17:33:18;16.60;99.90
20795;DHT22;28087;-33.874;151.240;2022-09-01T17:36:05;16.60;99.90
20795;DHT22;28087;-33.874;151.240;2022-09-01T17:38:51;16.60;99.90
20795;DHT22;28087;-33.874;151.240;2022-09-01T17:41:36;16.60;99.90
20795;DHT22;28087;-33.874;151.240;2022-09-01T17:44:17;16.60;99.90
20795;DHT22;28087;-33.874;151.240;2022-09-01T17:47:04;16.60;99.90
20795;DHT22;28087;-33.874;151.240;2022-09-01T17:49:49;16.60;99.90
20795;DHT22;28087;-33.874;151.240;2022-09-01T17:52:52;16.60;99.90
20795;DHT22;28087;-33.874;151.240;2022-09-01T17:55:44;16.50;99.90
20795;DHT22;28087;-33.874;151.240;2022-09-01T17:58:36;16.50;99.90
20795;DHT22;28087;-33.874;151.240;2022-09-01T18:01:20;16.50;99.90
20795;DHT22;28087;-33.874;151.240;2022-09-01T18:07:19;16.50;99.90
20795;DHT22;28087;-33.874;151.240;2022-09-01T18:09:56;16.50;99.90
20795;DHT22;28087;-33.874;151.240;2022-09-01T18:12:35;16.50;99.90
20795;DHT22;28087;-33.874;151.240;2022-09-01T18:15:18;16.50;99.90
20795;DHT22;28087;-33.874;151.240;2022-09-01T18:18:03;16.50;99.90
20795;DHT22;28087;-33.874;151.240;2022-09-01T18:20:41;16.60;99.90
20795;DHT22;28087;-33.874;151.240;2022-09-01T18:23:20;16.50;99.90
20795;DHT22;28087;-33.874;151.240;2022-09-01T18:26:02;16.50;99.90
20795;DHT22;28087;-33.874;151.240;2022-09-01T18:28:39;16.50;99.90
20795;DHT22;28087;-33.874;151.240;2022-09-01T18:34:39;16.50;99.90
20795;DHT22;28087;-33.874;151.240;2022-09-01T18:37:21;16.50;99.90
20795;DHT22;28087;-33.874;151.240;2022-09-01T18:40:03;16.50;99.90
20795;DHT22;28087;-33.874;151.240;2022-09-01T18:42:49;16.50;99.90
20795;DHT22;28087;-33.874;151.240;2022-09-01T18:45:33;16.50;99.90
20795;DHT22;28087;-33.874;151.240;2022-09-01T18:48:26;16.50;99.90
20795;DHT22;28087;-33.874;151.240;2022-09-01T18:51:09;16.50;99.90
20795;DHT22;28087;-33.874;151.240;2022-09-01T18:53:49;16.50;99.90
20795;DHT22;28087;-33.874;151.240;2022-09-01T18:56:31;16.50;99.90
20795;DHT22;28087;-33.874;151.240;2022-09-01T18:59:20;16.50;99.90
20795;DHT22;28087;-33.874;151.240;2022-09-01T19:02:19;16.50;99.90
20795;DHT22;28087;-33.874;151.240;2022-09-01T19:05:02;16.50;99.90
20795;DHT22;28087;-33.874;151.240;2022-09-01T19:07:44;16.40;99.90
20795;DHT22;28087;-33.874;151.240;2022-09-01T19:10:27;16.40;99.90
20795;DHT22;28087;-33.874;151.240;2022-09-01T19:13:09;16.40;99.90
20795;DHT22;28087;-33.874;151.240;2022-09-01T19:15:50;16.40;99.90
20795;DHT22;28087;-33.874;151.240;2022-09-01T19:18:40;16.40;99.90
20795;DHT22;28087;-33.874;151.240;2022-09-01T19:21:21;16.40;99.90
20795;DHT22;28087;-33.874;151.240;2022-09-01T19:24:00;16.40;99.90
20795;DHT22;28087;-33.874;151.240;2022-09-01T19:26:41;16.40;99.90
20795;DHT22;28087;-33.874;151.240;2022-09-01T19:29:24;16.30;99.90
20795;DHT22;28087;-33.874;151.240;2022-09-01T19:32:04;16.30;99.90
20795;DHT22;28087;-33.874;151.240;2022-09-01T19:34:42;16.30;99.90
20795;DHT22;28087;-33.874;151.240;2022-09-01T19:37:20;16.40;99.90
20795;DHT22;28087;-33.874;151.240;2022-09-01T19:39:56;16.30;99.90
20795;DHT22;28087;-33.874;151.240;2022-09-01T19:42:40;16.30;99.90
20795;DHT22;28087;-33.874;151.240;2022-09-01T19:45:20;16.30;99.90
20795;DHT22;28087;-33.874;151.240;2022-09-01T19:48:02;16.20;99.90
20795;DHT22;28087;-33.874;151.240;2022-09-01T19:50:40;16.30;99.90
20795;DHT22;28087;-33.874;151.240;2022-09-01T19:53:30;16.30;99.90
20795;DHT22;28087;-33.874;151.240;2022-09-01T19:56:31;16.30;99.90
20795;DHT22;28087;-33.874;151.240;2022-09-01T19:59:16;16.30;99.90
20795;DHT22;28087;-33.874;151.240;2022-09-01T20:01:55;16.30;99.90
20795;DHT22;28087;-33.874;151.240;2022-09-01T20:04:40;16.30;99.90
20795;DHT22;28087;-33.874;151.240;2022-09-01T20:07:25;16.30;99.90
20795;DHT22;28087;-33.874;151.240;2022-09-01T20:10:15;16.20;99.90
20795;DHT22;28087;-33.874;151.240;2022-09-01T20:12:59;16.20;99.90
20795;DHT22;28087;-33.874;151.240;2022-09-01T20:15:46;16.20;99.90
20795;DHT22;28087;-33.874;151.240;2022-09-01T20:18:27;16.20;99.90
20795;DHT22;28087;-33.874;151.240;2022-09-01T20:21:09;16.20;99.90
20795;DHT22;28087;-33.874;151.240;2022-09-01T20:23:56;16.20;99.90
20795;DHT22;28087;-33.874;151.240;2022-09-01T20:26:41;16.20;99.90
20795;DHT22;28087;-33.874;151.240;2022-09-01T20:29:23;16.20;99.90
20795;DHT22;28087;-33.874;151.240;2022-09-01T20:32:01;16.20;99.90
20795;DHT22;28087;-33.874;151.240;2022-09-01T20:34:40;16.20;99.90
20795;DHT22;28087;-33.874;151.240;2022-09-01T20:37:21;16.20;99.90
20795;DHT22;28087;-33.874;151.240;2022-09-01T20:40:05;16.20;99.90
20795;DHT22;28087;-33.874;151.240;2022-09-01T20:42:49;16.20;99.90
20795;DHT22;28087;-33.874;151.240;2022-09-01T20:45:27;16.20;99.90
20795;DHT22;28087;-33.874;151.240;2022-09-01T20:48:05;16.30;99.90
20795;DHT22;28087;-33.874;151.240;2022-09-01T20:50:48;16.30;99.90
20795;DHT22;28087;-33.874;151.240;2022-09-01T20:53:35;16.30;99.90
20795;DHT22;28087;-33.874;151.240;2022-09-01T20:56:42;16.30;99.90
20795;DHT22;28087;-33.874;151.240;2022-09-01T20:59:28;16.30;99.90
20795;DHT22;28087;-33.874;151.240;2022-09-01T21:02:12;16.30;99.90
20795;DHT22;28087;-33.874;151.240;2022-09-01T21:05:07;16.40;99.90
20795;DHT22;28087;-33.874;151.240;2022-09-01T21:07:48;16.40;99.90
20795;DHT22;28087;-33.874;151.240;2022-09-01T21:10:35;16.40;99.90
20795;DHT22;28087;-33.874;151.240;2022-09-01T21:13:42;16.40;99.90
20795;DHT22;28087;-33.874;151.240;2022-09-01T21:16:30;16.50;99.90
20795;DHT22;28087;-33.874;151.240;2022-09-01T21:19:13;16.40;99.90
20795;DHT22;28087;-33.874;151.240;2022-09-01T21:22:00;16.50;99.90
20795;DHT22;28087;-33.874;151.240;2022-09-01T21:24:41;16.50;99.90
20795;DHT22;28087;-33.874;151.240;2022-09-01T21:27:19;16.50;99.90
20795;DHT22;28087;-33.874;151.240;2022-09-01T21:30:07;16.60;99.90
20795;DHT22;28087;-33.874;151.240;2022-09-01T21:32:48;16.60;99.90
20795;DHT22;28087;-33.874;151.240;2022-09-01T21:35:25;16.60;99.90
20795;DHT22;28087;-33.874;151.240;2022-09-01T21:38:03;16.60;99.90
20795;DHT22;28087;-33.874;151.240;2022-09-01T21:40:39;16.70;99.90
20795;DHT22;28087;-33.874;151.240;2022-09-01T21:43:19;16.70;99.90
20795;DHT22;28087;-33.874;151.240;2022-09-01T21:45:56;16.70;99.90
20795;DHT22;28087;-33.874;151.240;2022-09-01T21:48:37;16.80;99.90
20795;DHT22;28087;-33.874;151.240;2022-09-01T21:51:13;16.80;99.90
20795;DHT22;28087;-33.874;151.240;2022-09-01T21:53:48;16.80;99.90
20795;DHT22;28087;-33.874;151.240;2022-09-01T21:56:26;16.90;99.90
20795;DHT22;28087;-33.874;151.240;2022-09-01T21:59:21;16.80;99.90
20795;DHT22;28087;-33.874;151.240;2022-09-01T22:01:58;16.90;99.90
20795;DHT22;28087;-33.874;151.240;2022-09-01T22:04:37;16.90;99.90
20795;DHT22;28087;-33.874;151.240;2022-09-01T22:07:12;16.90;99.90
20795;DHT22;28087;-33.874;151.240;2022-09-01T22:09:55;16.90;99.90
20795;DHT22;28087;-33.874;151.240;2022-09-01T22:12:31;16.90;99.90
20795;DHT22;28087;-33.874;151.240;2022-09-01T22:15:15;16.90;99.90
20795;DHT22;28087;-33.874;151.240;2022-09-01T22:17:51;16.90;99.90
20795;DHT22;28087;-33.874;151.240;2022-09-01T22:20:29;16.90;99.90
20795;DHT22;28087;-33.874;151.240;2022-09-01T22:23:08;16.90;99.90
20795;DHT22;28087;-33.874;151.240;2022-09-01T22:25:45;17.00;99.90
20795;DHT22;28087;-33.874;151.240;2022-09-01T22:28:21;17.00;99.90
20795;DHT22;28087;-33.874;151.240;2022-09-01T22:30:57;17.00;99.90
20795;DHT22;28087;-33.874;151.240;2022-09-01T22:33:33;17.00;99.90
20795;DHT22;28087;-33.874;151.240;2022-09-01T22:36:22;17.00;99.90
20795;DHT22;28087;-33.874;151.240;2022-09-01T22:38:58;17.00;99.90
20795;DHT22;28087;-33.874;151.240;2022-09-01T22:41:35;17.10;99.90
20795;DHT22;28087;-33.874;151.240;2022-09-01T22:44:15;17.10;99.90
20795;DHT22;28087;-33.874;151.240;2022-09-01T22:46:52;17.10;99.90
20795;DHT22;28087;-33.874;151.240;2022-09-01T22:49:28;17.10;99.90
20795;DHT22;28087;-33.874;151.240;2022-09-01T22:52:07;17.10;99.90